Time;durP1;ratioP1;P1;durP2;ratioP2;P2;SDS_P1;SDS_P2;PMS_P1;PMS_P2;Temp;Humidity;BMP_temperature;BMP_pressure;BME280_temperature;BME280_humidity;BME280_pressure;Samples;Min_cycle;Max_cycle;Signal;HPM_P1;HPM_P2
2022/05/10 00:02:12;;;;;;;4.90;1.85;;;;;;;3.03;68.98;101034.75;1712794;82;21105;-71
2022/05/10 00:04:39;;;;;;;3.83;1.87;;;;;;;3.02;69.25;101033.02;1712994;83;21045;-71
2022/05/10 00:07:05;;;;;;;3.15;1.57;;;;;;;3.00;68.76;101024.33;1712832;83;21116;-71
2022/05/10 00:09:32;;;;;;;5.17;1.77;;;;;;;2.98;68.70;101027.34;1712942;82;21234;-72
2022/05/10 00:11:59;;;;;;;7.33;2.08;;;;;;;2.95;68.50;101024.72;1712797;83;21049;-72
2022/05/10 00:14:27;;;;;;;3.25;1.77;;;;;;;2.92;68.35;101023.37;1712695;83;21046;-72
2022/05/10 00:16:54;;;;;;;3.50;1.60;;;;;;;2.89;68.49;101025.96;1713119;83;21057;-72
2022/05/10 00:19:21;;;;;;;3.15;1.40;;;;;;;2.86;68.56;101024.64;1712980;83;21069;-72
2022/05/10 00:21:47;;;;;;;3.40;1.40;;;;;;;2.84;69.38;101023.75;1702664;83;21271;-70
2022/05/10 00:24:16;;;;;;;3.58;1.50;;;;;;;2.81;69.36;101027.64;1702905;83;21069;-72
2022/05/10 00:26:45;;;;;;;2.67;1.32;;;;;;;2.79;69.68;101026.75;1712909;83;21074;-71
2022/05/10 00:29:12;;;;;;;5.58;1.75;;;;;;;2.76;70.36;101024.09;1712912;83;21081;-71
2022/05/10 00:31:38;;;;;;;2.55;1.70;;;;;;;2.75;70.50;101021.07;1691648;83;21512;-72
2022/05/10 00:34:05;;;;;;;8.43;1.95;;;;;;;2.73;70.24;101018.01;1713360;83;21197;-71
2022/05/10 00:36:32;;;;;;;4.22;1.67;;;;;;;2.71;69.69;101027.55;1712816;82;21572;-71
2022/05/10 00:38:58;;;;;;;4.22;1.52;;;;;;;2.64;69.58;101015.32;1713071;82;20996;-71
2022/05/10 00:41:45;;;;;;;4.15;1.90;;;;;;;2.64;69.62;101017.05;1713070;83;21011;-73
2022/05/10 00:44:20;;;;;;;5.17;1.62;;;;;;;2.62;70.27;101014.46;1713068;83;21063;-72
2022/05/10 00:50:25;;;;;;;3.40;1.70;;;;;;;2.56;69.73;101015.69;1811825;78;26044;-74
2022/05/10 00:53:29;;;;;;;2.98;1.77;;;;;;;2.49;69.97;101015.19;1755205;81;21067;-72
2022/05/10 00:56:07;;;;;;;3.22;1.65;;;;;;;2.47;69.54;101016.90;1755187;81;21012;-71
2022/05/10 00:58:52;;;;;;;2.27;1.55;;;;;;;2.44;69.84;101023.34;1759345;80;21056;-71
2022/05/10 01:01:24;;;;;;;3.05;1.85;;;;;;;2.40;70.02;101021.16;1784799;80;21015;-72
2022/05/10 01:04:32;;;;;;;3.98;1.95;;;;;;;2.38;70.16;101022.00;1748521;82;21049;-71
2022/05/10 01:07:11;;;;;;;3.17;1.57;;;;;;;2.33;70.83;101019.79;1786108;80;20986;-73
2022/05/10 01:09:45;;;;;;;3.15;1.75;;;;;;;2.30;71.55;101020.20;1746763;82;21111;-72
2022/05/10 01:12:37;;;;;;;3.00;1.40;;;;;;;2.27;71.83;101019.28;1785949;80;20996;-72
2022/05/10 01:15:15;;;;;;;5.33;1.62;;;;;;;2.21;71.82;101017.50;1781171;80;21032;-72
2022/05/10 01:17:41;;;;;;;4.80;1.87;;;;;;;2.19;71.13;101017.91;1784802;80;21044;-71
2022/05/10 01:20:13;;;;;;;4.95;1.85;;;;;;;2.15;71.38;101021.75;1718849;83;21033;-71
2022/05/10 01:23:20;;;;;;;4.75;1.70;;;;;;;2.12;72.03;101023.88;1784550;80;21133;-71
2022/05/10 01:26:34;;;;;;;3.87;1.80;;;;;;;2.09;72.43;101018.63;1718884;83;21043;-70
2022/05/10 01:29:06;;;;;;;4.83;1.35;;;;;;;2.04;72.60;101019.87;1786008;80;20989;-71
2022/05/10 01:31:40;;;;;;;4.50;1.70;;;;;;;2.02;73.05;101024.61;1785430;80;21068;-71
2022/05/10 01:34:11;;;;;;;3.45;1.77;;;;;;;1.97;73.07;101017.20;1781159;80;21099;-72
2022/05/10 01:36:49;;;;;;;3.25;2.00;;;;;;;1.94;72.99;101020.63;1781060;80;21116;-70
2022/05/10 01:39:30;;;;;;;5.08;1.65;;;;;;;1.91;73.02;101014.52;1753198;80;21522;-72
2022/05/10 01:42:15;;;;;;;5.47;1.87;;;;;;;1.82;73.20;101020.48;1781334;80;21076;-72
2022/05/10 01:44:58;;;;;;;5.10;1.70;;;;;;;1.82;73.20;101020.48;1781169;80;21023;-72
2022/05/10 01:47:48;;;;;;;3.25;1.75;;;;;;;1.78;74.05;101018.27;1781457;80;21069;-71
2022/05/10 01:50:23;;;;;;;2.27;1.42;;;;;;;1.75;74.20;101016.03;1779966;80;21165;-72
2022/05/10 01:53:06;;;;;;;3.08;1.77;;;;;;;1.73;74.53;101019.06;1781301;80;21027;-71
2022/05/10 01:55:46;;;;;;;4.50;2.00;;;;;;;1.71;75.15;101020.33;1781183;80;22263;-71
2022/05/10 01:58:22;;;;;;;5.97;2.20;;;;;;;1.68;75.98;101025.50;1781114;80;21016;-70
2022/05/10 02:00:57;;;;;;;3.75;1.95;;;;;;;1.68;75.30;101025.50;1780922;80;21107;-70
2022/05/10 02:03:30;;;;;;;3.25;1.65;;;;;;;1.65;74.93;101015.91;1780822;80;21164;-71
2022/05/10 02:06:12;;;;;;;3.92;2.10;;;;;;;1.64;74.61;101025.00;1780750;80;21123;-71
2022/05/10 02:09:16;;;;;;;3.50;1.90;;;;;;;1.59;74.20;101025.38;1780391;80;21777;-74
2022/05/10 02:11:56;;;;;;;6.70;2.17;;;;;;;1.56;74.56;101025.31;1751773;80;21552;-69
2022/05/10 02:14:31;;;;;;;4.05;2.25;;;;;;;1.52;75.54;101026.11;1780806;80;22284;-72
2022/05/10 02:17:05;;;;;;;4.47;1.82;;;;;;;1.53;75.45;101027.88;1780564;80;21122;-72
2022/05/10 02:19:55;;;;;;;4.47;1.90;;;;;;;1.44;75.30;101016.49;1780467;80;21513;-71
2022/05/10 02:22:43;;;;;;;4.15;1.90;;;;;;;1.44;75.30;101016.49;1780680;80;21017;-71
2022/05/10 02:25:24;;;;;;;3.77;2.08;;;;;;;1.43;75.44;101025.14;1780409;80;21036;-71
2022/05/10 02:27:54;;;;;;;4.33;2.45;;;;;;;1.38;75.98;101020.31;1780726;80;21106;-71
2022/05/10 02:30:24;;;;;;;2.77;1.70;;;;;;;1.36;76.49;101020.72;1780722;80;26392;-71
2022/05/10 02:33:09;;;;;;;5.83;1.80;;;;;;;1.32;76.74;101020.22;1783996;80;21048;-70
2022/05/10 02:35:54;;;;;;;3.92;2.08;;;;;;;1.32;77.37;101026.70;1785465;80;21100;-71
2022/05/10 02:38:30;;;;;;;8.63;2.40;;;;;;;1.30;77.68;101028.40;1785559;80;21048;-71
2022/05/10 02:40:59;;;;;;;9.33;2.10;;;;;;;1.32;77.48;101028.00;1785844;80;21560;-72
2022/05/10 02:43:38;;;;;;;4.58;2.47;;;;;;;1.30;77.61;101033.59;1785479;80;21217;-71
2022/05/10 02:46:05;;;;;;;2.52;1.87;;;;;;;1.25;77.60;101027.47;1785325;80;21571;-70
2022/05/10 02:48:36;;;;;;;3.70;2.22;;;;;;;1.25;77.57;101030.06;1783225;80;21060;-71
2022/05/10 02:51:04;;;;;;;7.25;2.58;;;;;;;1.23;77.40;101031.32;1774908;80;21076;-71
2022/05/10 02:53:32;;;;;;;5.00;1.90;;;;;;;1.24;77.88;101028.30;1774883;80;20998;-71
2022/05/10 02:56:13;;;;;;;3.98;1.92;;;;;;;1.24;78.21;101033.09;1774726;80;21097;-71
2022/05/10 02:58:59;;;;;;;5.12;2.40;;;;;;;1.26;77.98;101036.98;1774801;80;21537;-72
2022/05/10 03:01:41;;;;;;;4.42;2.15;;;;;;;1.28;77.89;101041.77;1775021;80;21025;-71
2022/05/10 03:04:09;;;;;;;4.53;2.27;;;;;;;1.32;77.92;101036.22;1774445;80;21112;-74
2022/05/10 03:06:36;;;;;;;4.05;2.20;;;;;;;1.39;77.91;101036.75;1775189;80;21108;-72
2022/05/10 03:09:03;;;;;;;9.73;2.20;;;;;;;1.49;77.91;101039.05;1774654;80;21782;-72
2022/05/10 03:11:30;;;;;;;3.08;2.25;;;;;;;1.61;77.79;101044.02;1774859;80;21044;-72
2022/05/10 03:13:57;;;;;;;4.80;2.10;;;;;;;1.80;77.29;101045.56;1775039;80;21088;-73
2022/05/10 03:16:24;;;;;;;3.65;1.85;;;;;;;1.97;76.86;101036.25;1774821;80;21525;-72
2022/05/10 03:18:52;;;;;;;3.00;1.98;;;;;;;2.16;76.48;101037.33;1774823;80;21018;-73
2022/05/10 03:21:19;;;;;;;3.87;2.25;;;;;;;2.40;75.40;101041.09;1775043;80;21782;-72
2022/05/10 03:23:47;;;;;;;3.70;1.90;;;;;;;2.73;74.47;101033.61;1774686;80;20978;-71
2022/05/10 03:26:15;;;;;;;3.15;1.80;;;;;;;3.25;74.13;101028.43;1774757;80;21017;-71
2022/05/10 03:28:42;;;;;;;5.92;2.35;;;;;;;4.06;72.02;101027.58;1774842;80;21053;-72
2022/05/10 03:31:10;;;;;;;3.37;2.20;;;;;;;4.97;69.13;101025.14;1774973;80;21064;-72
2022/05/10 03:33:37;;;;;;;5.28;2.30;;;;;;;5.77;64.19;101021.98;1772723;80;21197;-71
2022/05/10 03:36:04;;;;;;;7.83;2.37;;;;;;;6.41;61.46;101013.48;1772694;81;21537;-71
2022/05/10 03:38:32;;;;;;;2.90;1.92;;;;;;;7.08;59.09;101022.59;1772672;81;21073;-72
2022/05/10 03:40:59;;;;;;;3.92;1.85;;;;;;;7.76;57.32;101015.81;1772601;80;21085;-71
2022/05/10 03:43:27;;;;;;;2.98;1.87;;;;;;;8.40;55.18;101014.62;1772559;81;21058;-71
2022/05/10 03:45:54;;;;;;;4.42;2.22;;;;;;;8.97;53.29;101015.06;1772692;81;21868;-71
2022/05/10 03:48:21;;;;;;;4.90;1.85;;;;;;;9.48;51.76;101027.33;1772378;81;21066;-71
2022/05/10 03:50:48;;;;;;;3.72;1.87;;;;;;;9.94;50.41;101021.19;1778305;80;21049;-72
2022/05/10 03:53:15;;;;;;;5.40;1.95;;;;;;;10.35;49.22;101011.59;1777977;80;20993;-71
2022/05/10 03:55:41;;;;;;;3.77;1.72;;;;;;;10.71;47.11;101005.48;1777779;80;21033;-72
2022/05/10 03:58:08;;;;;;;3.92;1.50;;;;;;;11.08;46.46;101011.17;1777874;80;21390;-70
2022/05/10 04:00:34;;;;;;;4.22;2.08;;;;;;;11.54;45.18;101013.94;1778017;80;21040;-71
2022/05/10 04:03:01;;;;;;;4.67;1.87;;;;;;;11.96;43.30;101012.39;1777925;80;21049;-72
2022/05/10 04:05:27;;;;;;;3.92;1.92;;;;;;;12.20;41.55;101007.30;1777956;80;21044;-70
2022/05/10 04:07:54;;;;;;;4.22;2.42;;;;;;;12.45;40.26;101010.53;1777899;80;21060;-69
2022/05/10 04:10:22;;;;;;;6.30;2.25;;;;;;;12.68;39.84;101008.02;1778148;80;21201;-71
2022/05/10 04:12:49;;;;;;;3.58;2.08;;;;;;;13.04;38.24;101006.41;1777948;80;21900;-71
2022/05/10 04:15:17;;;;;;;3.55;1.95;;;;;;;13.39;37.82;101008.37;1777998;80;21540;-71
2022/05/10 04:17:43;;;;;;;4.08;1.90;;;;;;;13.76;37.66;101011.03;1778108;80;21040;-70
2022/05/10 04:20:13;;;;;;;2.90;1.70;;;;;;;14.10;35.90;101000.50;1778024;80;21009;-71
2022/05/10 04:22:41;;;;;;;6.72;1.70;;;;;;;14.54;35.13;101003.21;1778257;80;21074;-71
2022/05/10 04:25:09;;;;;;;8.73;2.45;;;;;;;15.04;33.38;101005.17;1777895;80;21077;-71
2022/05/10 04:27:36;;;;;;;3.20;1.80;;;;;;;15.41;31.58;101009.38;1778155;80;21583;-73
2022/05/10 04:30:05;;;;;;;2.10;1.45;;;;;;;15.61;31.66;100996.11;1777761;80;21096;-71
2022/05/10 04:32:34;;;;;;;2.87;1.57;;;;;;;15.91;31.47;101002.34;1773715;80;21072;-72
2022/05/10 04:35:00;;;;;;;3.72;1.92;;;;;;;16.38;30.91;100991.31;1769969;81;21306;-73
2022/05/10 04:37:29;;;;;;;2.92;1.87;;;;;;;16.73;29.08;100998.91;1770029;81;21006;-73
2022/05/10 04:42:44;;;;;;;2.92;1.40;;;;;;;16.88;28.69;100988.00;1770054;81;21021;-73
2022/05/10 04:45:14;;;;;;;3.77;1.67;;;;;;;17.20;28.77;100998.84;1770303;81;21033;-73
2022/05/10 04:47:42;;;;;;;3.92;1.32;;;;;;;17.50;28.25;100997.72;1770101;81;21153;-72
2022/05/10 04:50:09;;;;;;;3.08;1.55;;;;;;;17.82;27.79;100993.39;1768496;80;21038;-71
2022/05/10 04:52:38;;;;;;;2.42;1.40;;;;;;;18.05;27.53;100985.97;1767505;80;21727;-71
2022/05/10 04:55:07;;;;;;;1.90;1.30;;;;;;;18.13;27.36;100985.53;1767529;80;21081;-73
2022/05/10 04:57:38;;;;;;;1.70;1.02;;;;;;;18.18;27.02;100987.02;1767886;81;21054;-73
2022/05/10 05:00:09;;;;;;;3.60;1.40;;;;;;;18.38;27.33;100981.04;1767805;81;21374;-72
2022/05/10 05:02:35;;;;;;;1.45;1.20;;;;;;;18.57;26.80;100981.73;1767893;81;22289;-72
2022/05/10 05:05:03;;;;;;;1.85;1.20;;;;;;;18.74;26.87;100986.58;1767515;80;21594;-73
2022/05/10 05:07:30;;;;;;;4.05;1.65;;;;;;;18.87;26.66;100980.95;1767588;81;21573;-71
2022/05/10 05:09:57;;;;;;;2.35;1.37;;;;;;;18.91;26.60;100983.84;1767470;81;21029;-73
2022/05/10 05:12:24;;;;;;;2.17;1.22;;;;;;;19.03;26.58;100981.77;1767581;81;21205;-71
2022/05/10 05:14:50;;;;;;;3.45;1.57;;;;;;;19.27;26.37;100981.26;1767629;81;21541;-73
2022/05/10 05:17:17;;;;;;;3.92;1.50;;;;;;;19.54;26.15;100981.89;1767524;80;21660;-72
2022/05/10 05:19:44;;;;;;;2.80;1.42;;;;;;;19.66;26.21;100981.12;1767396;81;22157;-73
2022/05/10 05:22:10;;;;;;;4.60;1.50;;;;;;;19.75;26.49;100988.61;1767427;80;21557;-72
2022/05/10 05:24:37;;;;;;;2.35;1.55;;;;;;;19.85;26.39;100984.44;1767635;81;22225;-72
2022/05/10 05:27:05;;;;;;;3.90;1.37;;;;;;;20.06;26.06;100978.21;1767824;81;21038;-73
2022/05/10 05:29:32;;;;;;;4.03;1.57;;;;;;;20.12;26.49;100974.28;1767791;80;21041;-72
2022/05/10 05:31:58;;;;;;;2.52;1.20;;;;;;;20.24;26.31;100977.49;1767601;81;21029;-74
2022/05/10 05:34:25;;;;;;;2.22;1.35;;;;;;;20.25;26.03;100976.55;1767898;81;21081;-73
2022/05/10 05:37:37;;;;;;;1.98;1.37;;;;;;;20.23;26.45;100975.79;1767661;81;21135;-70
2022/05/10 05:39:20;;;;;;;3.15;1.30;;;;;;;20.41;25.45;100974.23;1740064;81;21945;-72
2022/05/10 05:41:46;;;;;;;2.52;1.30;;;;;;;20.48;25.78;100972.39;1767794;81;21057;-71
2022/05/10 05:44:14;;;;;;;3.12;1.50;;;;;;;20.72;25.76;100969.94;1767716;81;21046;-73
2022/05/10 05:46:41;;;;;;;3.15;1.20;;;;;;;20.86;25.04;100967.68;1767692;80;21025;-75
2022/05/10 05:49:08;;;;;;;3.95;1.35;;;;;;;20.99;24.15;100965.54;1767489;80;22169;-72
2022/05/10 05:51:35;;;;;;;3.83;1.55;;;;;;;21.14;23.93;100969.83;1764436;81;20993;-71
2022/05/10 05:54:08;;;;;;;4.90;1.67;;;;;;;21.35;23.66;100963.03;1764569;81;21038;-72
2022/05/10 05:56:31;;;;;;;3.15;1.60;;;;;;;21.49;22.30;100962.11;1764065;81;21019;-71
2022/05/10 05:59:00;;;;;;;2.05;1.07;;;;;;;21.40;22.64;100960.06;1765082;81;21546;-73
2022/05/10 06:01:29;;;;;;;2.85;1.30;;;;;;;21.56;22.67;100959.86;1764854;81;21053;-73
2022/05/10 06:03:58;;;;;;;2.75;1.32;;;;;;;21.57;21.91;100955.70;1764548;81;21113;-74
2022/05/10 06:06:27;;;;;;;4.05;1.30;;;;;;;21.49;21.73;100956.74;1764741;81;21022;-72
2022/05/10 06:08:54;;;;;;;3.15;1.40;;;;;;;21.53;22.28;100957.37;1764690;81;21049;-73
2022/05/10 06:11:21;;;;;;;4.45;1.37;;;;;;;21.69;21.88;100957.16;1764694;81;21057;-73
2022/05/10 06:13:48;;;;;;;7.10;1.40;;;;;;;21.90;21.95;100952.97;1765054;81;21175;-74
2022/05/10 06:16:17;;;;;;;2.33;1.20;;;;;;;22.12;21.97;100950.92;1764489;81;22029;-74
2022/05/10 06:18:45;;;;;;;1.62;1.00;;;;;;;22.26;20.26;100951.29;1764686;81;21077;-72
2022/05/10 06:21:14;;;;;;;3.67;1.22;;;;;;;22.08;19.25;100943.20;1764972;81;21597;-72
2022/05/10 06:23:41;;;;;;;7.60;1.30;;;;;;;21.75;20.23;100946.86;1764705;81;21010;-73
2022/05/10 06:26:08;;;;;;;4.28;1.22;;;;;;;21.67;20.52;100947.91;1764747;81;21236;-72
2022/05/10 06:28:37;;;;;;;3.20;1.05;;;;;;;21.58;19.87;100945.37;1764428;81;20991;-72
2022/05/10 06:31:08;;;;;;;2.12;1.07;;;;;;;21.50;20.75;100945.05;1764626;81;21070;-73
2022/05/10 06:33:37;;;;;;;2.67;1.15;;;;;;;21.50;19.99;100943.70;1723760;82;21088;-71
2022/05/10 06:36:04;;;;;;;2.67;1.20;;;;;;;21.50;20.02;100950.41;1744070;82;21042;-73
2022/05/10 06:38:34;;;;;;;1.77;0.90;;;;;;;21.56;20.33;100940.61;1743991;82;21235;-74
2022/05/10 06:41:04;;;;;;;3.62;1.20;;;;;;;21.71;19.31;100944.50;1679910;85;21069;-73
2022/05/10 06:43:36;;;;;;;5.28;1.12;;;;;;;21.62;18.67;100945.16;1708682;84;21526;-73
2022/05/10 06:46:15;;;;;;;3.72;1.32;;;;;;;21.46;19.64;100940.86;1678584;85;21571;-74
2022/05/10 06:48:46;;;;;;;2.17;1.20;;;;;;;21.48;19.32;100939.42;1672398;85;21606;-73
2022/05/10 06:51:15;;;;;;;3.60;1.17;;;;;;;21.61;19.66;100928.71;1714399;83;22230;-73
2022/05/10 06:53:42;;;;;;;5.95;1.40;;;;;;;21.63;19.96;100933.48;1751910;81;21026;-71
2022/05/10 06:56:10;;;;;;;3.45;1.10;;;;;;;21.66;20.45;100935.94;1752097;81;21191;-73
2022/05/10 06:58:37;;;;;;;2.05;0.90;;;;;;;21.86;19.74;100926.48;1751906;81;21052;-72
2022/05/10 07:01:11;;;;;;;1.30;1.05;;;;;;;21.83;19.63;100924.85;1752214;81;21108;-72
2022/05/10 07:03:36;;;;;;;3.40;1.10;;;;;;;21.73;19.83;100924.66;1751448;81;21244;-73
2022/05/10 07:06:05;;;;;;;3.98;0.80;;;;;;;22.00;19.57;100918.30;1751955;81;21127;-72
2022/05/10 07:08:32;;;;;;;3.00;1.17;;;;;;;22.14;19.61;100909.23;1715421;83;21514;-72
2022/05/10 07:10:59;;;;;;;2.00;1.32;;;;;;;22.27;19.47;100914.12;1752131;81;21083;-72
2022/05/10 07:13:29;;;;;;;6.90;1.30;;;;;;;22.38;18.85;100906.59;1752146;81;21025;-73
2022/05/10 07:15:57;;;;;;;4.40;1.40;;;;;;;22.32;19.42;100902.55;1716520;83;21115;-73
2022/05/10 07:18:26;;;;;;;6.65;1.40;;;;;;;22.33;19.21;100902.06;1751927;81;21005;-73
2022/05/10 07:20:53;;;;;;;3.85;1.10;;;;;;;22.38;18.55;100902.56;1723240;81;21025;-73
2022/05/10 07:23:22;;;;;;;3.33;1.12;;;;;;;22.13;19.05;100904.83;1722597;81;21056;-73
2022/05/10 07:25:49;;;;;;;3.60;1.62;;;;;;;22.12;19.10;100896.42;1752222;81;21032;-76
2022/05/10 07:28:16;;;;;;;2.80;1.10;;;;;;;22.26;18.96;100885.55;1751833;81;21210;-72
2022/05/10 07:30:45;;;;;;;5.92;1.02;;;;;;;22.23;18.77;100884.45;1752012;81;21018;-72
2022/05/10 07:33:12;;;;;;;7.60;1.40;;;;;;;22.11;19.76;100886.19;1752173;81;21577;-72
2022/05/10 07:38:27;;;;;;;3.00;1.15;;;;;;;22.46;18.78;100881.89;1752195;81;21032;-73
2022/05/10 07:40:55;;;;;;;7.42;1.30;;;;;;;22.44;18.58;100869.06;1751972;81;21118;-73
2022/05/10 07:43:23;;;;;;;7.65;2.02;;;;;;;22.52;18.84;100878.72;1751877;81;21056;-72
2022/05/10 07:45:54;;;;;;;6.60;1.55;;;;;;;22.61;18.30;100880.71;1687024;85;21070;-73
2022/05/10 07:48:21;;;;;;;2.75;1.10;;;;;;;22.61;19.08;100875.34;1752005;81;21048;-72
2022/05/10 07:50:50;;;;;;;2.05;1.15;;;;;;;22.45;18.87;100877.48;1723806;81;21853;-73
2022/05/10 07:53:17;;;;;;;2.05;1.00;;;;;;;22.19;19.10;100874.88;1754417;81;21244;-73
2022/05/10 07:55:45;;;;;;;4.53;1.42;;;;;;;21.57;19.11;100876.64;1750437;81;21148;-72
2022/05/10 07:58:13;;;;;;;3.45;1.20;;;;;;;20.85;19.88;100875.45;1754469;81;21096;-73
2022/05/10 08:00:41;;;;;;;2.17;1.00;;;;;;;20.21;20.22;100880.09;1754862;81;21073;-73
2022/05/10 08:03:16;;;;;;;3.05;1.05;;;;;;;20.14;20.95;100874.77;1662229;84;21521;-73
2022/05/10 08:05:44;;;;;;;2.60;0.98;;;;;;;20.37;21.05;100867.05;1754771;81;21533;-71
2022/05/10 08:08:12;;;;;;;2.22;1.27;;;;;;;20.66;19.89;100863.31;1754455;81;21108;-74
2022/05/10 08:10:41;;;;;;;3.08;1.00;;;;;;;21.07;19.53;100864.98;1690553;83;21049;-72
2022/05/10 08:13:13;;;;;;;3.85;1.20;;;;;;;21.46;18.89;100859.63;1725417;81;21603;-72
2022/05/10 08:15:41;;;;;;;3.40;1.00;;;;;;;21.73;19.01;100846.07;1754727;81;21090;-73
2022/05/10 08:18:09;;;;;;;3.62;0.93;;;;;;;22.13;18.38;100844.47;1754820;81;21505;-73
2022/05/10 08:20:39;;;;;;;2.12;1.00;;;;;;;22.05;17.99;100842.86;1689692;84;21077;-73
2022/05/10 08:23:07;;;;;;;2.05;1.15;;;;;;;21.85;18.68;100843.83;1754836;81;21020;-71
2022/05/10 08:25:34;;;;;;;2.47;1.10;;;;;;;21.65;18.38;100848.44;1718270;83;21069;-72
2022/05/10 08:28:04;;;;;;;9.50;1.10;;;;;;;21.52;18.60;100843.97;1725581;81;22172;-71
2022/05/10 08:30:31;;;;;;;7.10;1.30;;;;;;;21.63;18.37;100842.35;1725018;81;21225;-74
2022/05/10 08:32:59;;;;;;;4.85;1.00;;;;;;;21.58;17.80;100826.61;1777769;80;22314;-74
2022/05/10 08:35:26;;;;;;;2.67;1.35;;;;;;;21.39;18.58;100849.78;1785561;80;21552;-73
2022/05/10 08:37:53;;;;;;;4.03;0.90;;;;;;;21.47;18.66;100844.78;1785205;80;21052;-73
2022/05/10 08:40:31;;;;;;;2.42;1.00;;;;;;;21.81;17.96;100837.00;1785649;80;21039;-74
2022/05/10 08:43:02;;;;;;;4.72;1.00;;;;;;;22.12;18.17;100830.22;1784377;80;21493;-71
2022/05/10 08:45:35;;;;;;;1.30;0.80;;;;;;;22.28;18.01;100843.37;1785674;80;21107;-72
2022/05/10 08:48:03;;;;;;;3.55;1.00;;;;;;;22.24;18.30;100824.45;1755365;80;21075;-73
2022/05/10 08:50:30;;;;;;;7.83;1.15;;;;;;;22.15;18.03;100833.15;1749047;80;21080;-72
2022/05/10 08:52:59;;;;;;;2.00;0.93;;;;;;;21.88;17.63;100838.72;1751918;81;21009;-72
2022/05/10 08:55:31;;;;;;;1.62;0.80;;;;;;;21.75;17.97;100833.41;1751802;81;21250;-73
2022/05/10 08:58:15;;;;;;;3.05;1.32;;;;;;;21.87;17.31;100824.46;1751897;81;21081;-72
2022/05/10 09:00:54;;;;;;;1.47;0.80;;;;;;;21.99;17.64;100822.70;1751979;81;21688;-73
2022/05/10 09:03:59;;;;;;;2.83;0.80;;;;;;;22.12;17.71;100823.50;1732980;81;21112;-72
2022/05/10 09:06:37;;;;;;;1.72;1.00;;;;;;;22.10;17.44;100816.55;1751393;81;21014;-71
2022/05/10 09:09:28;;;;;;;2.02;1.05;;;;;;;22.05;17.79;100821.41;1751590;81;21246;-72
2022/05/10 09:12:07;;;;;;;2.62;1.07;;;;;;;22.35;17.73;100821.81;1751921;81;21589;-72
2022/05/10 09:14:44;;;;;;;4.20;1.20;;;;;;;22.63;16.65;100803.60;1752440;81;21056;-74
2022/05/10 09:17:12;;;;;;;1.85;0.85;;;;;;;22.75;17.12;100805.36;1752204;81;21040;-73
2022/05/10 09:19:42;;;;;;;3.30;1.12;;;;;;;22.73;16.60;100804.62;1752234;81;21142;-73
2022/05/10 09:22:24;;;;;;;2.70;1.17;;;;;;;22.76;16.82;100798.16;1752965;81;21738;-71
2022/05/10 09:24:56;;;;;;;2.52;1.22;;;;;;;22.90;16.79;100807.83;1750226;81;21002;-72
2022/05/10 09:27:34;;;;;;;2.62;1.02;;;;;;;22.99;17.20;100800.42;1733111;81;22169;-73
2022/05/10 09:30:03;;;;;;;1.70;0.90;;;;;;;23.02;17.51;100782.70;1752169;81;21022;-72
2022/05/10 09:35:27;;;;;;;2.12;1.35;;;;;;;22.64;18.48;100787.88;1752082;81;21228;-72
2022/05/10 09:38:06;;;;;;;3.27;1.10;;;;;;;22.55;18.14;100776.02;1751705;81;21577;-73
2022/05/10 09:40:45;;;;;;;3.47;1.20;;;;;;;22.61;18.31;100776.02;1751870;81;21077;-73
2022/05/10 09:43:22;;;;;;;3.40;1.20;;;;;;;22.96;17.33;100767.03;1735785;81;21117;-73
2022/05/10 09:46:25;;;;;;;1.95;0.90;;;;;;;23.09;17.79;100763.78;1752298;81;21049;-72
2022/05/10 09:48:52;;;;;;;2.55;1.00;;;;;;;23.25;17.73;100758.04;1752656;81;21181;-73
2022/05/10 09:51:40;;;;;;;2.37;1.10;;;;;;;23.41;17.39;100748.25;1762032;80;21635;-73
2022/05/10 09:54:25;;;;;;;7.75;1.25;;;;;;;23.71;17.79;100752.95;1778348;80;21056;-73
2022/05/10 09:56:56;;;;;;;5.45;1.20;;;;;;;23.87;17.20;100752.56;1778313;80;21084;-72
2022/05/10 09:59:33;;;;;;;3.77;1.10;;;;;;;23.52;16.94;100753.61;1778374;80;21106;-72
2022/05/10 10:02:03;;;;;;;2.08;1.17;;;;;;;23.20;17.41;100743.62;1777140;80;21251;-73
2022/05/10 10:04:45;;;;;;;2.55;1.07;;;;;;;23.08;17.84;100744.63;1777631;80;21029;-73
2022/05/10 10:07:22;;;;;;;1.55;1.02;;;;;;;23.08;18.38;100755.37;1776883;80;21013;-72
2022/05/10 10:09:56;;;;;;;1.77;1.00;;;;;;;22.89;17.42;100739.84;1777974;80;21096;-72
2022/05/10 10:12:37;;;;;;;3.47;1.02;;;;;;;22.76;18.10;100737.74;1774649;80;21049;-71
2022/05/10 10:15:24;;;;;;;2.27;1.20;;;;;;;22.76;18.22;100747.14;1777373;80;21199;-72
2022/05/10 10:17:58;;;;;;;5.90;1.25;;;;;;;22.83;18.23;100733.10;1778156;80;21061;-71
2022/05/10 10:20:45;;;;;;;2.58;0.95;;;;;;;23.14;17.95;100725.30;1741133;80;21061;-71
2022/05/10 10:23:34;;;;;;;1.55;1.00;;;;;;;23.46;17.15;100724.03;1776641;80;21025;-72
2022/05/10 10:26:44;;;;;;;2.37;1.17;;;;;;;23.52;17.32;100707.91;1778232;80;21060;-71
2022/05/10 10:29:32;;;;;;;2.90;1.22;;;;;;;23.29;17.91;100723.73;1778208;80;21195;-70
2022/05/10 10:32:03;;;;;;;2.72;0.85;;;;;;;23.34;17.40;100716.14;1769260;80;21514;-72
2022/05/10 10:34:42;;;;;;;;;;;;;;;23.20;17.21;100719.45;1735862;81;21617;-72
2022/05/10 10:37:27;;;;;;;2.22;1.17;;;;;;;23.18;17.03;100713.84;1752279;81;20180;-71
2022/05/10 10:40:23;;;;;;;2.27;1.12;;;;;;;23.17;17.14;100703.59;1746290;81;21018;-72
2022/05/10 10:43:22;;;;;;;2.60;1.10;;;;;;;23.40;17.94;100707.59;1752286;81;21760;-71
2022/05/10 10:45:59;;;;;;;5.08;1.45;;;;;;;23.64;16.83;100699.32;1752222;81;21053;-72
2022/05/10 10:48:38;;;;;;;4.37;1.30;;;;;;;23.41;17.66;100685.09;1745713;81;21006;-73
2022/05/10 10:51:05;;;;;;;1.72;1.07;;;;;;;23.39;17.61;100690.58;1756489;80;21054;-70
2022/05/10 10:53:38;;;;;;;3.72;1.10;;;;;;;23.46;17.61;100692.28;1780398;80;21036;-72
2022/05/10 10:56:36;;;;;;;2.22;1.10;;;;;;;23.40;17.46;100687.43;1750920;80;21841;-72
2022/05/10 10:59:10;;;;;;;2.17;1.40;;;;;;;23.65;17.70;100691.63;1780253;80;21109;-72
2022/05/10 11:02:10;;;;;;;8.53;1.55;;;;;;;23.73;17.11;100685.61;1780580;80;21053;-71
2022/05/10 11:05:07;;;;;;;1.80;0.90;;;;;;;23.57;17.04;100681.99;1780515;80;21017;-73
2022/05/10 11:07:58;;;;;;;3.00;1.05;;;;;;;23.67;17.27;100673.51;1762781;80;21056;-72
2022/05/10 11:10:50;;;;;;;;;;;;;;;23.86;17.28;100664.81;1782994;80;21144;-73
2022/05/10 11:13:38;;;;;;;3.15;1.35;;;;;;;23.70;16.94;100671.09;1774459;80;20121;-74
2022/05/10 11:16:43;;;;;;;1.70;0.90;;;;;;;23.48;17.43;100658.06;1780347;80;21076;-72
2022/05/10 11:19:45;;;;;;;7.33;1.42;;;;;;;23.31;16.76;100651.91;1780524;80;21096;-72
2022/05/10 11:22:35;;;;;;;2.40;1.20;;;;;;;23.05;18.08;100645.45;1780508;80;21045;-73
2022/05/10 11:25:46;;;;;;;1.55;1.00;;;;;;;23.15;17.60;100656.34;1780766;80;21280;-72
2022/05/10 11:28:24;;;;;;;1.43;0.90;;;;;;;23.28;16.94;100656.16;1780095;80;21084;-72
2022/05/10 11:31:27;;;;;;;3.37;1.20;;;;;;;23.17;16.59;100640.95;1783037;80;21065;-74
2022/05/10 11:34:16;;;;;;;1.77;1.17;;;;;;;23.05;17.81;100636.05;1752807;82;21034;-71
2022/05/10 11:36:48;;;;;;;2.85;1.40;;;;;;;22.92;17.49;100635.34;1752649;82;21099;-73
2022/05/10 11:39:50;;;;;;;2.70;1.17;;;;;;;22.95;17.47;100625.68;1723306;82;21291;-72
2022/05/10 11:42:45;;;;;;;3.62;1.20;;;;;;;22.92;17.43;100631.31;1729404;82;21029;-72
2022/05/10 11:45:45;;;;;;;2.72;1.15;;;;;;;22.60;17.59;100630.22;1752451;82;21040;-71
2022/05/10 11:48:51;;;;;;;3.58;1.30;;;;;;;22.30;17.56;100611.19;1734387;82;21057;-71
2022/05/10 11:51:55;;;;;;;1.55;0.95;;;;;;;21.86;18.54;100614.13;1753122;80;21494;-74
2022/05/10 11:54:47;;;;;;;2.95;1.20;;;;;;;21.51;18.59;100615.83;1774836;80;21236;-72
2022/05/10 11:57:19;;;;;;;3.15;1.12;;;;;;;21.40;18.95;100609.08;1773946;80;21050;-72
2022/05/10 11:59:49;;;;;;;1.95;1.20;;;;;;;21.48;18.85;100593.27;1738112;82;21047;-72
2022/05/10 12:02:43;;;;;;;3.62;1.25;;;;;;;21.43;18.42;100594.10;1707347;84;21058;-72
2022/05/10 12:05:16;;;;;;;1.77;1.20;;;;;;;21.18;18.54;100591.52;1700794;84;21113;-72
2022/05/10 12:07:55;;;;;;;2.77;1.12;;;;;;;21.02;18.54;100596.66;1738114;82;21151;-72
2022/05/10 12:10:36;;;;;;;4.35;1.32;;;;;;;20.87;18.69;100577.23;1704067;84;21082;-72
2022/05/10 12:22:55;;;;;;;2.02;1.25;;;;;;;21.09;18.76;100568.45;1700443;84;21334;-72
2022/05/10 12:26:00;;;;;;;2.50;1.47;;;;;;;21.02;18.51;100572.55;1737699;82;21045;-73